createdAt,value
2018-11-23T00:02:00.133Z,88.97
2018-11-23T00:04:30.421Z,88.88
2018-11-23T00:07:00.444Z,88.19
2018-11-23T00:09:30.770Z,88.10
2018-11-23T00:12:01.015Z,87.23
2018-11-23T00:14:30.728Z,87.68
2018-11-23T00:17:00.944Z,87.27
2018-11-23T00:19:31.208Z,87.47
2018-11-23T00:22:01.595Z,87.94
2018-11-23T00:24:31.656Z,88.62
2018-11-23T00:27:01.998Z,87.54
2018-11-23T00:29:32.259Z,87.52
2018-11-23T00:32:02.468Z,88.00
2018-11-23T00:34:32.476Z,87.63
2018-11-23T00:37:02.717Z,87.03
2018-11-23T00:39:32.787Z,87.64
2018-11-23T00:42:03.166Z,88.87
2018-11-23T00:44:33.366Z,87.16
2018-11-23T00:47:03.713Z,87.30
2018-11-23T00:49:33.741Z,87.99
2018-11-23T00:52:03.840Z,88.46
2018-11-23T00:54:34.037Z,89.59
2018-11-23T00:57:04.321Z,89.33
2018-11-23T00:59:36.069Z,89.55
2018-11-23T01:02:07.305Z,89.41
2018-11-23T01:04:38.001Z,89.57
2018-11-23T01:07:08.076Z,90.00
2018-11-23T01:09:38.224Z,89.51
2018-11-23T01:12:08.415Z,89.48
2018-11-23T01:14:38.635Z,88.99
2018-11-23T01:17:08.974Z,89.74
2018-11-23T01:19:39.285Z,89.64
2018-11-23T01:22:09.540Z,90.17
2018-11-23T01:24:39.959Z,90.88
2018-11-23T01:27:11.280Z,90.59
2018-11-23T01:29:42.713Z,89.22
2018-11-23T01:32:12.746Z,88.53
2018-11-23T01:34:43.039Z,88.80
2018-11-23T01:37:13.273Z,89.51
2018-11-23T01:39:43.693Z,90.05
2018-11-23T01:42:14.023Z,89.97
2018-11-23T01:44:48.708Z,88.79
2018-11-23T01:47:20.580Z,88.34
2018-11-23T01:49:50.894Z,88.77
2018-11-23T01:52:21.382Z,89.41
2018-11-23T01:54:51.548Z,89.29
2018-11-23T01:57:21.982Z,89.38
2018-11-23T01:59:52.211Z,88.67
2018-11-23T02:02:22.378Z,89.91
2018-11-23T02:04:52.569Z,89.61
2018-11-23T02:07:23.081Z,89.36
2018-11-23T02:09:53.529Z,89.12
2018-11-23T02:12:23.882Z,89.65
2018-11-23T02:14:54.608Z,89.75
2018-11-23T02:17:25.191Z,89.33
2018-11-23T02:19:56.846Z,89.49
2018-11-23T02:22:28.112Z,89.99
2018-11-23T02:24:58.326Z,90.91
2018-11-23T02:27:28.586Z,90.49
2018-11-23T02:29:58.527Z,90.25
2018-11-23T02:32:28.456Z,90.45
2018-11-23T02:34:58.440Z,91.07
2018-11-23T02:37:28.499Z,91.12
2018-11-23T02:39:59.707Z,91.80
2018-11-23T02:42:29.845Z,92.09
2018-11-23T02:45:00.605Z,92.20
2018-11-23T02:47:30.726Z,92.92
2018-11-23T02:50:02.211Z,92.81
2018-11-23T02:52:32.470Z,92.79
2018-11-23T02:55:02.611Z,91.95
2018-11-23T02:57:33.404Z,91.50
2018-11-23T03:00:03.772Z,90.71
2018-11-23T03:02:33.884Z,90.97
2018-11-23T03:05:04.076Z,91.19
2018-11-23T03:07:34.258Z,91.58
2018-11-23T03:10:04.588Z,91.59
2018-11-23T03:12:34.804Z,92.23
2018-11-23T03:15:05.015Z,91.99
2018-11-23T03:17:35.284Z,90.70
2018-11-23T03:20:05.564Z,90.81
2018-11-23T03:22:35.684Z,90.25
2018-11-23T03:25:06.024Z,89.17
2018-11-23T03:27:36.299Z,89.62
2018-11-23T03:30:13.413Z,89.66
2018-11-23T03:32:44.196Z,89.44
2018-11-23T03:35:14.750Z,89.36
2018-11-23T03:37:45.268Z,89.75
2018-11-23T03:40:15.364Z,89.59
2018-11-23T03:42:45.352Z,90.07
2018-11-23T03:45:16.150Z,89.69
2018-11-23T03:47:46.597Z,89.14
2018-11-23T03:50:17.477Z,89.80
2018-11-23T03:52:48.662Z,89.68
2018-11-23T03:55:19.014Z,90.30
2018-11-23T03:57:49.554Z,89.78
2018-11-23T04:00:22.258Z,89.38
2018-11-23T04:02:53.056Z,89.57
2018-11-23T04:05:23.282Z,90.29
2018-11-23T04:07:53.372Z,88.99
2018-11-23T09:40:20.978Z,77.07
2018-11-23T09:42:51.338Z,75.83
2018-11-23T09:45:25.507Z,72.95
2018-11-23T09:47:56.999Z,74.85
2018-11-23T09:50:27.932Z,73.29
2018-11-23T09:53:00.792Z,72.00
2018-11-23T09:55:32.206Z,70.53
2018-11-23T09:58:02.274Z,73.14
2018-11-23T10:00:34.869Z,69.89
2018-11-23T10:03:05.587Z,68.90
2018-11-23T10:05:36.233Z,68.94
2018-11-23T10:08:07.662Z,69.81
2018-11-23T10:10:38.028Z,68.15
2018-11-23T10:13:08.688Z,69.31
2018-11-23T10:15:38.856Z,69.36
2018-11-23T10:18:09.110Z,69.20
2018-11-23T10:20:39.289Z,66.89
2018-11-23T10:23:14.706Z,66.75
2018-11-23T10:25:45.016Z,67.69
2018-11-23T10:28:15.116Z,67.13
2018-11-23T10:30:44.939Z,66.37
2018-11-23T10:33:16.245Z,68.15
2018-11-23T10:35:46.549Z,66.97
2018-11-23T10:38:16.590Z,66.72
2018-11-23T10:40:46.689Z,66.52
2018-11-23T10:43:16.770Z,66.88
2018-11-23T10:45:46.643Z,66.07
2018-11-23T10:48:17.070Z,67.86
2018-11-23T10:50:47.886Z,66.52
2018-11-23T10:53:18.026Z,67.35
2018-11-23T10:55:48.337Z,69.13
2018-11-23T10:58:18.588Z,69.03
2018-11-23T11:00:54.619Z,68.87
2018-11-23T11:03:33.913Z,67.36
2018-11-23T11:06:15.232Z,68.29
2018-11-23T11:08:45.730Z,67.83
2018-11-23T11:11:15.779Z,68.93
2018-11-23T11:13:45.718Z,70.00
2018-11-23T11:16:15.972Z,69.12
2018-11-23T11:18:46.096Z,68.15
2018-11-23T11:21:16.261Z,67.28
2018-11-23T11:23:46.564Z,67.98
2018-11-23T11:26:17.338Z,68.65
2018-11-23T11:28:47.505Z,70.50
2018-11-23T11:31:17.771Z,70.39
2018-11-23T11:33:47.889Z,70.91
2018-11-23T11:36:17.994Z,71.27
2018-11-23T11:38:48.231Z,71.69
2018-11-23T11:41:18.446Z,72.88
2018-11-23T11:43:48.715Z,72.94
2018-11-23T11:46:18.793Z,72.64
2018-11-23T11:48:48.905Z,72.26
2018-11-23T11:51:20.259Z,73.06
2018-11-23T11:53:50.690Z,72.00
2018-11-23T11:56:20.929Z,72.37
2018-11-23T11:58:54.104Z,73.31
2018-11-23T12:01:26.163Z,72.67
2018-11-23T12:03:57.000Z,74.07
2018-11-23T12:06:27.810Z,73.85
2018-11-23T12:08:58.607Z,72.26
2018-11-23T12:11:28.950Z,72.13
2018-11-23T12:13:59.334Z,73.50
2018-11-23T12:16:30.980Z,72.89
2018-11-23T12:19:01.151Z,73.75
2018-11-23T12:21:32.368Z,74.97
2018-11-23T12:24:02.724Z,75.32
2018-11-23T12:26:33.319Z,75.17
2018-11-23T12:29:03.713Z,76.27
2018-11-23T12:31:34.084Z,75.55
2018-11-23T12:34:04.328Z,76.33
2018-11-23T12:36:34.565Z,77.12
2018-11-23T12:39:05.499Z,77.72
2018-11-23T12:41:35.817Z,77.46
2018-11-23T12:44:06.477Z,77.46
2018-11-23T12:46:36.625Z,77.38
2018-11-23T12:49:07.625Z,77.85
2018-11-23T12:51:38.115Z,78.68
2018-11-23T12:54:08.884Z,78.90
2018-11-23T12:56:40.274Z,79.16
2018-11-23T12:59:10.958Z,79.47
2018-11-23T13:01:41.522Z,79.03
2018-11-23T13:04:13.562Z,79.18
2018-11-23T13:06:44.546Z,79.68
2018-11-23T13:09:14.957Z,79.94
2018-11-23T13:11:45.316Z,80.40
2018-11-23T13:14:15.331Z,79.23
2018-11-23T13:16:45.631Z,79.31
2018-11-23T13:19:15.731Z,79.31
2018-11-23T13:21:46.017Z,79.83
2018-11-23T13:24:16.201Z,80.61
2018-11-23T13:26:46.381Z,80.73
2018-11-23T13:29:16.568Z,80.84
2018-11-23T13:31:48.018Z,81.39
2018-11-23T13:34:18.316Z,81.89
2018-11-23T13:36:49.344Z,82.63
2018-11-23T13:39:19.626Z,82.04
2018-11-23T13:41:50.401Z,82.32
2018-11-23T13:44:23.519Z,82.45
2018-11-23T13:46:53.874Z,83.04
2018-11-23T13:49:24.126Z,83.40
2018-11-23T13:51:54.818Z,82.98
2018-11-23T13:54:25.139Z,84.00
2018-11-23T13:56:55.804Z,84.31
2018-11-23T13:59:26.832Z,84.73
2018-11-23T14:01:57.224Z,84.75
2018-11-23T14:04:35.686Z,85.62
2018-11-23T14:07:06.128Z,85.90
2018-11-23T14:09:36.588Z,87.04
2018-11-23T14:12:06.969Z,86.89
2018-11-23T14:14:37.678Z,86.96
2018-11-23T14:17:07.762Z,87.54
2018-11-23T14:19:37.765Z,87.65
2018-11-23T14:22:08.389Z,87.98
2018-11-23T14:24:39.537Z,88.41
2018-11-23T14:27:09.942Z,89.30
2018-11-23T14:29:41.138Z,89.30
2018-11-23T14:32:11.612Z,90.13
2018-11-23T14:34:42.267Z,90.71
2018-11-23T14:37:12.597Z,90.38
2018-11-23T14:39:42.880Z,90.25
2018-11-23T14:42:14.113Z,90.45
2018-11-23T14:44:44.448Z,91.52
2018-11-23T14:47:14.902Z,91.78
2018-11-23T14:49:46.757Z,92.63
2018-11-23T14:52:19.411Z,92.81
2018-11-23T14:54:50.085Z,92.92
2018-11-23T14:57:20.571Z,92.98
2018-11-23T14:59:51.250Z,93.55
2018-11-23T15:02:22.661Z,93.88
2018-11-23T15:04:53.096Z,93.95
2018-11-23T15:07:23.526Z,93.75
2018-11-23T15:09:53.835Z,93.37
2018-11-23T15:12:24.148Z,94.13
2018-11-23T15:14:54.931Z,94.87
2018-11-23T15:17:25.013Z,94.11
2018-11-23T15:19:55.085Z,94.80
2018-11-23T15:22:25.205Z,95.28
2018-11-23T15:24:55.230Z,95.84
2018-11-23T15:27:25.764Z,96.05
2018-11-23T15:29:56.117Z,96.17
2018-11-23T15:32:27.419Z,97.12
2018-11-23T15:34:57.444Z,97.53
2018-11-23T15:37:28.114Z,97.68
2018-11-23T15:39:59.910Z,98.06
2018-11-23T15:42:30.261Z,98.60
2018-11-23T15:45:00.663Z,98.87
2018-11-23T15:47:31.560Z,98.35
2018-11-23T15:50:02.674Z,99.05
2018-11-23T15:52:33.294Z,99.43
2018-11-23T15:55:08.297Z,99.55
2018-11-23T15:57:38.896Z,99.46
2018-11-23T16:00:13.085Z,99.90
2018-11-23T16:02:43.869Z,99.43
2018-11-23T16:05:14.820Z,99.54
2018-11-23T16:07:45.706Z,99.50
2018-11-23T16:10:24.806Z,99.11
2018-11-23T16:12:56.493Z,99.11
2018-11-23T16:15:27.262Z,99.30
2018-11-23T16:17:57.762Z,99.40
2018-11-23T16:20:35.440Z,99.19
2018-11-23T16:23:07.055Z,99.07
2018-11-23T16:25:38.527Z,99.28
2018-11-23T16:28:09.641Z,99.08
2018-11-23T16:30:48.551Z,99.30
2018-11-23T16:33:24.684Z,99.40
2018-11-23T16:35:54.930Z,98.99
2018-11-23T16:38:25.521Z,98.80
2018-11-23T16:40:59.671Z,99.35
2018-11-23T16:43:30.925Z,99.26
2018-11-23T16:46:01.300Z,99.97
2018-11-23T16:48:32.996Z,99.87
2018-11-23T16:51:07.061Z,100.00
2018-11-23T16:53:37.502Z,100.00
2018-11-23T16:56:08.370Z,100.00
2018-11-23T16:58:38.674Z,100.00
2018-11-23T17:01:09.121Z,100.00
2018-11-23T17:03:39.394Z,100.00
2018-11-23T17:06:09.729Z,100.00
2018-11-23T17:08:40.808Z,100.00
2018-11-23T17:11:14.351Z,100.00
2018-11-23T17:13:44.764Z,100.00
2018-11-23T17:16:19.446Z,100.00
2018-11-23T17:18:50.182Z,100.00
2018-11-23T17:21:20.772Z,100.00
2018-11-23T17:23:52.040Z,100.00
2018-11-23T17:29:14.239Z,100.00
2018-11-23T17:31:45.107Z,100.00
2018-11-23T17:34:17.577Z,100.00
2018-11-23T17:36:47.995Z,100.00
2018-11-23T17:39:20.272Z,100.00
2018-11-23T17:41:50.977Z,100.00
2018-11-23T17:44:21.448Z,100.00
2018-11-23T17:46:51.838Z,100.00
2018-11-23T17:49:23.677Z,100.00
2018-11-23T17:51:53.695Z,100.00
2018-11-23T17:54:24.060Z,100.00
2018-11-23T17:56:55.019Z,100.00
2018-11-23T17:59:25.163Z,100.00
2018-11-23T18:01:56.940Z,100.00
2018-11-23T18:04:27.392Z,100.00
2018-11-23T18:06:57.553Z,100.00
2018-11-23T18:09:27.757Z,100.00
2018-11-23T18:11:58.120Z,100.00
2018-11-23T18:14:29.126Z,100.00
2018-11-23T18:17:00.145Z,100.00
2018-11-23T18:19:30.508Z,100.00
2018-11-23T18:22:00.577Z,100.00
2018-11-23T18:24:31.009Z,100.00
2018-11-23T18:27:01.206Z,100.00
2018-11-23T18:29:31.241Z,100.00
2018-11-23T18:32:01.501Z,100.00
2018-11-23T18:34:31.807Z,100.00
2018-11-23T18:37:01.930Z,100.00
2018-11-23T18:39:32.165Z,100.00
2018-11-23T18:42:02.180Z,100.00
2018-11-23T18:44:32.682Z,100.00
2018-11-23T18:47:02.673Z,100.00
2018-11-23T18:49:32.875Z,100.00
2018-11-23T18:52:03.026Z,100.00
2018-11-23T18:54:33.338Z,100.00
2018-11-23T18:57:03.392Z,100.00
2018-11-23T18:59:33.341Z,100.00
2018-11-23T19:02:03.630Z,100.00
2018-11-23T19:04:33.592Z,100.00
2018-11-23T19:07:08.107Z,100.00
2018-11-23T19:09:34.989Z,100.00
2018-11-23T19:12:05.181Z,100.00
2018-11-23T19:14:35.750Z,100.00
2018-11-23T19:17:06.502Z,100.00
2018-11-23T19:19:36.735Z,100.00
2018-11-23T19:22:07.487Z,99.80
2018-11-23T19:24:37.728Z,99.36
2018-11-23T19:27:07.933Z,99.83
2018-11-23T19:29:38.852Z,99.57
2018-11-23T19:32:08.951Z,99.83
2018-11-23T19:34:39.139Z,100.00
2018-11-23T19:37:09.352Z,100.00
2018-11-23T19:39:40.306Z,100.00
2018-11-23T19:42:10.356Z,100.00
2018-11-23T19:44:40.560Z,100.00
2018-11-23T19:47:11.860Z,100.00
2018-11-23T19:49:42.479Z,100.00
2018-11-23T19:52:12.645Z,100.00
2018-11-23T19:54:45.888Z,100.00
2018-11-23T19:57:21.661Z,100.00
2018-11-23T19:59:52.685Z,100.00
2018-11-23T20:02:24.412Z,99.86
2018-11-23T20:04:54.940Z,99.09
2018-11-23T20:07:26.300Z,97.42
2018-11-23T20:09:57.068Z,97.24
2018-11-23T20:12:27.268Z,96.62
2018-11-23T20:14:57.665Z,97.34
2018-11-23T20:17:28.460Z,97.48
2018-11-23T20:19:58.854Z,98.21
2018-11-23T20:22:29.346Z,98.83
2018-11-23T20:25:00.768Z,98.53
2018-11-23T20:27:31.723Z,98.26
2018-11-23T20:30:02.199Z,97.16
2018-11-23T20:32:33.393Z,96.98
2018-11-23T20:35:05.278Z,97.03
2018-11-23T20:37:35.800Z,97.06
2018-11-23T20:40:10.464Z,97.72
2018-11-23T20:42:40.820Z,98.19
2018-11-23T20:45:12.034Z,98.43
2018-11-23T20:47:43.254Z,98.81
2018-11-23T20:50:16.009Z,98.99
2018-11-23T20:52:46.223Z,98.53
2018-11-23T20:55:19.835Z,98.58
2018-11-23T20:57:51.313Z,97.84
2018-11-23T21:00:23.046Z,98.40
2018-11-23T21:02:54.329Z,98.72
2018-11-23T21:05:25.100Z,99.00
2018-11-23T21:07:55.995Z,99.87
2018-11-23T21:10:28.187Z,99.91
2018-11-23T21:12:58.726Z,100.00
2018-11-23T21:15:30.219Z,100.00
2018-11-23T21:18:03.544Z,99.60
2018-11-23T21:20:34.124Z,98.71
2018-11-23T21:23:06.216Z,97.58
2018-11-23T21:25:36.520Z,96.08
2018-11-23T21:28:06.855Z,95.10
2018-11-23T21:30:37.375Z,94.07
2018-11-23T21:33:07.953Z,94.64
2018-11-23T21:35:39.221Z,94.32
2018-11-23T21:38:10.662Z,94.68
2018-11-23T21:40:44.274Z,95.02
2018-11-23T21:43:11.266Z,94.80
2018-11-23T21:45:41.705Z,94.64
2018-11-23T21:48:12.079Z,95.05
2018-11-23T21:50:42.286Z,94.93
2018-11-23T21:53:12.493Z,94.63
2018-11-23T21:55:42.834Z,95.01
2018-11-23T21:58:13.076Z,94.95
2018-11-23T22:00:43.164Z,95.43
2018-11-23T22:03:13.938Z,94.55
2018-11-23T22:05:44.208Z,94.91
2018-11-23T22:08:14.234Z,93.97
2018-11-23T22:10:45.327Z,93.59
2018-11-23T22:13:15.617Z,93.03
2018-11-23T22:15:45.886Z,94.00
2018-11-23T22:18:16.159Z,94.18
2018-11-23T22:20:46.393Z,93.40
2018-11-23T22:23:16.454Z,92.86
2018-11-23T22:25:47.401Z,92.78
2018-11-23T22:28:17.817Z,92.56
2018-11-23T22:30:48.382Z,91.79
2018-11-23T22:33:19.605Z,92.06
2018-11-23T22:35:49.853Z,92.36
2018-11-23T22:38:20.192Z,92.16
2018-11-23T22:40:50.427Z,92.66
2018-11-23T22:43:21.352Z,92.10
2018-11-23T22:45:51.711Z,91.92
2018-11-23T22:48:22.376Z,92.79
2018-11-23T22:50:52.617Z,92.54
2018-11-23T22:53:22.903Z,92.47
2018-11-23T22:55:53.016Z,92.04
2018-11-23T22:58:24.699Z,91.78
2018-11-23T23:01:00.075Z,91.15
2018-11-23T23:03:30.320Z,91.36
2018-11-23T23:06:00.472Z,91.09
2018-11-23T23:08:31.040Z,90.69
2018-11-23T23:11:01.034Z,90.04
2018-11-23T23:13:31.381Z,89.80
2018-11-23T23:16:01.494Z,90.23
2018-11-23T23:18:31.795Z,89.20
2018-11-23T23:21:01.779Z,89.36
2018-11-23T23:23:31.667Z,89.65
2018-11-23T23:26:01.995Z,88.15
2018-11-23T23:28:32.960Z,88.91
2018-11-23T23:31:04.048Z,88.91
2018-11-23T23:33:34.409Z,87.01
2018-11-23T23:36:04.369Z,87.10
2018-11-23T23:38:34.488Z,87.16
2018-11-23T23:41:04.729Z,87.85
2018-11-23T23:43:34.900Z,88.24
2018-11-23T23:46:05.376Z,88.70
2018-11-23T23:48:35.589Z,88.98
2018-11-23T23:51:06.560Z,89.54
2018-11-23T23:53:36.694Z,89.56
2018-11-23T23:56:10.777Z,88.49
2018-11-23T23:58:40.783Z,88.78
